createdAt,value
2019-04-03T00:01:44.376Z,43.92
2019-04-03T00:04:18.171Z,42.97
2019-04-03T00:06:50.520Z,44.68
2019-04-03T00:09:22.951Z,44.16
2019-04-03T00:11:55.284Z,44.62
2019-04-03T00:14:27.761Z,44.59
2019-04-03T00:17:00.350Z,44.67
2019-04-03T00:19:34.515Z,44.87
2019-04-03T00:22:06.981Z,44.73
2019-04-03T00:24:39.488Z,44.89
2019-04-03T00:27:12.086Z,44.60
2019-04-03T00:29:44.827Z,45.17
2019-04-03T00:32:17.226Z,44.69
2019-04-03T00:34:49.896Z,44.69
2019-04-03T00:37:23.269Z,45.35
2019-04-03T00:39:56.108Z,44.89
2019-04-03T00:42:28.556Z,45.93
2019-04-03T00:45:00.917Z,45.69
2019-04-03T00:47:33.401Z,45.66
2019-04-03T00:50:07.998Z,44.53
2019-04-03T00:52:40.407Z,45.66
2019-04-03T00:55:13.187Z,45.90
2019-04-03T00:57:45.752Z,45.85
2019-04-03T01:00:18.216Z,45.81
2019-04-03T01:02:50.576Z,45.85
2019-04-03T01:05:22.961Z,46.25
2019-04-03T01:07:55.546Z,45.80
2019-04-03T01:10:29.654Z,45.89
2019-04-03T01:13:02.362Z,45.97
2019-04-03T01:15:35.597Z,46.14
2019-04-03T01:18:08.006Z,46.37
2019-04-03T01:20:40.622Z,45.36
2019-04-03T01:23:13.231Z,46.37
2019-04-03T01:25:46.191Z,45.91
2019-04-03T01:28:18.758Z,46.55
2019-04-03T01:30:51.236Z,46.59
2019-04-03T01:33:24.676Z,46.60
2019-04-03T01:35:57.281Z,46.26
2019-04-03T01:38:29.726Z,46.55
2019-04-03T01:41:02.257Z,46.45
2019-04-03T01:43:35.011Z,46.20
2019-04-03T01:46:07.446Z,46.40
2019-04-03T01:48:39.753Z,47.02
2019-04-03T01:51:12.426Z,46.38
2019-04-03T01:53:46.217Z,46.69
2019-04-03T01:56:18.715Z,46.49
2019-04-03T01:58:51.301Z,46.89
2019-04-03T02:01:23.963Z,46.65
2019-04-03T02:03:57.601Z,46.20
2019-04-03T02:06:30.186Z,46.32
2019-04-03T02:09:02.651Z,47.48
2019-04-03T02:11:36.160Z,47.47
2019-04-03T02:14:08.511Z,47.04
2019-04-03T02:16:41.012Z,47.19
2019-04-03T02:19:13.897Z,46.79
2019-04-03T02:21:46.236Z,47.37
2019-04-03T02:24:19.106Z,47.95
2019-04-03T02:26:51.719Z,47.16
2019-04-03T02:29:24.006Z,47.69
2019-04-03T02:31:56.631Z,47.97
2019-04-03T02:34:29.147Z,47.89
2019-04-03T02:37:01.591Z,48.39
2019-04-03T02:39:33.943Z,47.97
2019-04-03T02:42:08.854Z,47.05
2019-04-03T02:44:40.619Z,47.87
2019-04-03T02:47:13.199Z,48.56
2019-04-03T02:49:45.753Z,48.28
2019-04-03T02:52:18.108Z,47.90
2019-04-03T02:54:50.519Z,49.16
2019-04-03T02:57:22.961Z,48.77
2019-04-03T02:59:57.862Z,49.21
2019-04-03T03:02:29.693Z,48.60
2019-04-03T03:05:02.648Z,47.77
2019-04-03T03:07:36.298Z,48.74
2019-04-03T03:10:09.642Z,47.48
2019-04-03T03:12:42.373Z,48.80
2019-04-03T03:15:15.028Z,48.78
2019-04-03T03:17:47.572Z,48.82
2019-04-03T03:20:23.873Z,49.11
2019-04-03T03:22:56.485Z,48.67
2019-04-03T03:25:32.110Z,48.89
2019-04-03T03:28:03.106Z,49.01
2019-04-03T03:30:44.290Z,49.27
2019-04-03T03:33:26.994Z,49.60
2019-04-03T03:35:47.198Z,50.25
2019-04-03T03:38:18.313Z,50.28
2019-04-03T03:40:51.229Z,50.41
2019-04-03T03:43:23.801Z,50.80
2019-04-03T03:45:56.298Z,50.79
2019-04-03T03:48:28.928Z,50.33
2019-04-03T03:51:01.379Z,51.25
2019-04-03T03:53:34.478Z,50.81
2019-04-03T03:56:07.341Z,51.36
2019-04-03T03:58:40.301Z,51.29
2019-04-03T04:01:13.062Z,51.71
2019-04-03T04:03:45.986Z,51.26
2019-04-03T04:06:18.258Z,50.61
2019-04-03T04:08:50.977Z,51.73
2019-04-03T04:11:23.507Z,51.10
2019-04-03T04:13:55.800Z,52.08
2019-04-03T04:16:28.271Z,51.24
2019-04-03T04:19:00.946Z,52.13
2019-04-03T04:21:33.647Z,51.58
2019-04-03T04:24:05.993Z,51.78
2019-04-03T04:26:38.373Z,52.51
2019-04-03T04:29:11.513Z,51.60
2019-04-03T04:31:44.457Z,52.51
2019-04-03T04:34:18.907Z,52.04
2019-04-03T04:36:51.231Z,52.76
2019-04-03T04:39:23.402Z,51.89
2019-04-03T04:41:55.860Z,52.63
2019-04-03T04:44:28.270Z,52.28
2019-04-03T04:47:00.717Z,53.00
2019-04-03T04:49:33.002Z,52.34
2019-04-03T04:52:05.719Z,51.79
2019-04-03T04:54:38.194Z,51.29
2019-04-03T04:57:10.711Z,52.61
2019-04-03T04:59:45.190Z,52.26
2019-04-03T05:02:17.846Z,52.72
2019-04-03T05:04:51.257Z,52.08
2019-04-03T05:07:23.941Z,52.93
2019-04-03T05:09:58.010Z,52.00
2019-04-03T05:12:30.426Z,51.77
2019-04-03T05:15:03.044Z,51.82
2019-04-03T05:17:35.791Z,52.72
2019-04-03T05:20:08.501Z,52.28
2019-04-03T05:22:41.126Z,52.75
2019-04-03T05:25:13.941Z,51.99
2019-04-03T05:27:46.571Z,51.63
2019-04-03T05:30:29.324Z,51.75
2019-04-03T05:33:01.976Z,52.10
2019-04-03T05:35:37.416Z,51.69
2019-04-03T05:38:08.969Z,51.95
2019-04-03T05:40:41.560Z,51.55
2019-04-03T05:43:14.228Z,51.38
2019-04-03T05:45:46.671Z,51.55
2019-04-03T05:48:19.375Z,51.61
2019-04-03T05:50:52.311Z,51.45
2019-04-03T05:53:24.896Z,51.59
2019-04-03T05:55:57.476Z,51.28
2019-04-03T05:58:30.129Z,51.08
2019-04-03T06:01:06.209Z,50.93
2019-04-03T06:03:42.195Z,50.74
2019-04-03T06:06:13.995Z,50.53
2019-04-03T06:08:45.881Z,50.33
2019-04-03T06:11:20.654Z,50.18
2019-04-03T06:13:52.466Z,50.00
2019-04-03T06:16:25.245Z,49.59
2019-04-03T06:18:59.123Z,49.54
2019-04-03T06:21:32.681Z,49.10
2019-04-03T06:24:05.139Z,48.63
2019-04-03T06:26:38.510Z,48.34
2019-04-03T06:29:11.256Z,48.76
2019-04-03T06:31:43.981Z,48.74
2019-04-03T06:34:16.301Z,48.03
2019-04-03T06:36:50.762Z,47.83
2019-04-03T06:39:24.089Z,47.19
2019-04-03T06:41:57.014Z,46.75
2019-04-03T06:44:29.560Z,46.68
2019-04-03T06:47:02.054Z,47.13
2019-04-03T06:49:34.533Z,47.13
2019-04-03T06:52:07.282Z,47.22
2019-04-03T06:54:39.471Z,46.23
2019-04-03T06:57:13.896Z,45.36
2019-04-03T06:59:48.751Z,46.15
2019-04-03T07:02:21.012Z,46.08
2019-04-03T07:04:53.526Z,45.45
2019-04-03T07:07:33.001Z,45.56
2019-04-03T07:09:59.812Z,44.16
2019-04-03T07:12:32.270Z,44.84
2019-04-03T07:17:38.157Z,43.06
2019-04-03T07:20:15.364Z,43.55
2019-04-03T07:22:46.885Z,43.16
2019-04-03T07:25:19.148Z,42.37
2019-04-03T07:27:52.346Z,42.85
2019-04-03T07:30:24.573Z,43.35
2019-04-03T07:32:58.287Z,42.69
2019-04-03T07:35:32.501Z,42.04
2019-04-03T07:38:04.775Z,42.60
2019-04-03T07:40:37.619Z,42.28
2019-04-03T07:43:10.106Z,41.41
2019-04-03T07:45:43.862Z,42.15
2019-04-03T07:48:16.160Z,41.69
2019-04-03T07:50:48.538Z,40.76
2019-04-03T07:53:20.895Z,42.08
2019-04-03T07:55:55.112Z,41.61
2019-04-03T07:58:27.107Z,41.84
2019-04-03T08:00:59.447Z,40.67
2019-04-03T08:03:31.697Z,41.42
2019-04-03T08:06:04.446Z,40.42
2019-04-03T08:08:37.107Z,41.32
2019-04-03T08:11:10.426Z,39.80
2019-04-03T08:13:43.862Z,41.08
2019-04-03T08:16:16.696Z,39.46
2019-04-03T08:18:51.418Z,39.18
2019-04-03T08:21:24.044Z,39.22
2019-04-03T08:23:56.202Z,39.31
2019-04-03T08:26:28.381Z,39.51
2019-04-03T08:29:01.741Z,39.03
2019-04-03T08:31:34.441Z,39.28
2019-04-03T08:34:15.489Z,39.60
2019-04-03T08:36:40.701Z,38.77
2019-04-03T08:39:13.692Z,39.44
2019-04-03T08:41:47.571Z,39.20
2019-04-03T08:44:20.310Z,38.44
2019-04-03T08:46:52.998Z,37.49
2019-04-03T08:49:26.323Z,38.09
2019-04-03T08:51:59.360Z,37.31
2019-04-03T08:54:31.562Z,37.41
2019-04-03T08:57:04.398Z,36.44
2019-04-03T08:59:37.321Z,36.91
2019-04-03T09:02:12.723Z,36.77
2019-04-03T09:04:43.881Z,37.06
2019-04-03T09:07:16.537Z,36.37
2019-04-03T09:09:48.784Z,36.85
2019-04-03T09:12:21.232Z,36.70
2019-04-03T09:14:53.371Z,36.41
2019-04-03T09:17:25.807Z,37.35
2019-04-03T09:19:58.331Z,36.52
2019-04-03T09:22:32.243Z,37.18
2019-04-03T09:25:05.781Z,35.88
2019-04-03T09:27:39.847Z,36.52
2019-04-03T09:30:15.713Z,36.25
2019-04-03T09:32:47.764Z,35.66
2019-04-03T09:35:20.141Z,36.11
2019-04-03T09:37:52.281Z,35.89
2019-04-03T09:40:25.797Z,36.70
2019-04-03T09:42:58.321Z,36.48
2019-04-03T09:45:31.418Z,35.87
2019-04-03T09:48:05.609Z,36.20
2019-04-03T09:50:37.056Z,35.26
2019-04-03T09:53:09.176Z,35.43
2019-04-03T09:55:41.556Z,35.51
2019-04-03T09:58:14.155Z,35.05
2019-04-03T10:00:46.350Z,35.72
2019-04-03T10:03:18.841Z,35.56
2019-04-03T10:05:51.236Z,35.03
2019-04-03T10:08:23.752Z,34.52
2019-04-03T10:10:55.996Z,34.46
2019-04-03T10:13:28.376Z,34.77
2019-04-03T10:16:03.231Z,34.16
2019-04-03T10:18:34.516Z,34.74
2019-04-03T10:21:06.858Z,34.70
2019-04-03T10:23:39.156Z,34.10
2019-04-03T10:26:11.337Z,34.78
2019-04-03T10:28:46.863Z,33.96
2019-04-03T10:31:17.589Z,33.96
2019-04-03T10:33:49.916Z,34.00
2019-04-03T10:36:22.126Z,34.01
2019-04-03T10:38:54.216Z,33.55
2019-04-03T10:41:28.670Z,34.37
2019-04-03T10:44:00.636Z,34.29
2019-04-03T10:46:33.240Z,32.98
2019-04-03T10:49:05.516Z,32.80
2019-04-03T10:51:40.901Z,32.78
2019-04-03T10:54:11.956Z,33.25
2019-04-03T10:56:44.396Z,32.84
2019-04-03T10:59:18.475Z,32.61
2019-04-03T11:01:52.336Z,33.35
2019-04-03T11:04:24.638Z,33.14
2019-04-03T11:06:56.968Z,33.05
2019-04-03T11:09:29.156Z,32.25
2019-04-03T11:12:01.471Z,32.74
2019-04-03T11:14:34.156Z,32.44
2019-04-03T11:17:06.296Z,32.78
2019-04-03T11:19:38.771Z,32.05
2019-04-03T11:22:10.816Z,32.59
2019-04-03T11:24:43.322Z,31.90
2019-04-03T11:27:15.551Z,32.15
2019-04-03T11:29:49.764Z,32.50
2019-04-03T11:32:23.189Z,31.99
2019-04-03T11:34:56.330Z,32.61
2019-04-03T11:37:30.145Z,31.53
2019-04-03T11:40:05.445Z,31.55
2019-04-03T11:42:37.481Z,31.54
2019-04-03T11:45:10.881Z,31.51
2019-04-03T11:47:45.287Z,31.98
2019-04-03T11:50:18.036Z,30.85
2019-04-03T11:52:51.761Z,31.25
2019-04-03T11:55:24.494Z,31.22
2019-04-03T11:57:56.866Z,31.30
2019-04-03T12:00:32.052Z,31.02
2019-04-03T12:03:05.602Z,31.47
2019-04-03T12:05:38.321Z,31.49
2019-04-03T12:08:12.563Z,30.94
2019-04-03T12:10:45.267Z,30.97
2019-04-03T12:13:19.452Z,31.27
2019-04-03T12:15:53.504Z,31.33
2019-04-03T12:18:25.508Z,31.49
2019-04-03T12:20:58.157Z,30.21
2019-04-03T12:23:30.591Z,30.26
2019-04-03T12:26:03.802Z,30.66
2019-04-03T12:28:36.271Z,30.44
2019-04-03T12:31:08.918Z,30.66
2019-04-03T12:33:52.005Z,30.05
2019-04-03T12:36:15.058Z,29.99
2019-04-03T12:38:47.733Z,30.32
2019-04-03T12:41:19.961Z,30.27
2019-04-03T12:43:52.789Z,30.91
2019-04-03T12:46:37.869Z,30.11
2019-04-03T12:49:11.419Z,29.97
2019-04-03T12:51:43.776Z,30.27
2019-04-03T12:54:19.905Z,29.64
2019-04-03T12:56:50.378Z,29.59
2019-04-03T12:59:22.858Z,29.58
2019-04-03T13:01:55.184Z,29.62
2019-04-03T13:04:30.260Z,29.65
2019-04-03T13:07:04.489Z,29.66
2019-04-03T13:09:37.980Z,29.67
2019-04-03T13:12:09.923Z,29.85
2019-04-03T13:14:43.261Z,30.29
2019-04-03T13:17:15.816Z,29.02
2019-04-03T13:19:48.336Z,29.80
2019-04-03T13:22:20.564Z,29.67
2019-04-03T13:24:53.252Z,29.23
2019-04-03T13:27:25.717Z,29.12
2019-04-03T13:29:58.144Z,29.53
2019-04-03T13:32:30.546Z,29.35
2019-04-03T13:35:04.891Z,29.08
2019-04-03T13:37:37.602Z,28.56
2019-04-03T13:40:10.027Z,28.80
2019-04-03T13:42:43.897Z,29.22
2019-04-03T13:45:16.107Z,29.19
2019-04-03T13:47:48.257Z,29.09
2019-04-03T13:50:22.544Z,28.96
2019-04-03T13:52:54.682Z,29.10
2019-04-03T13:55:28.835Z,29.29
2019-04-03T13:58:01.181Z,29.44
2019-04-03T14:00:33.984Z,29.32
2019-04-03T14:03:06.317Z,29.09
2019-04-03T14:05:38.436Z,29.10
2019-04-03T14:08:12.877Z,29.34
2019-04-03T14:10:45.084Z,29.21
2019-04-03T14:13:17.789Z,29.56
2019-04-03T14:15:50.718Z,29.37
2019-04-03T14:18:23.157Z,29.53
2019-04-03T14:20:56.262Z,29.01
2019-04-03T14:23:29.575Z,29.32
2019-04-03T14:26:05.592Z,29.80
2019-04-03T14:28:37.423Z,29.56
2019-04-03T14:31:10.517Z,29.83
2019-04-03T14:33:46.267Z,29.83
2019-04-03T14:36:19.160Z,29.67
2019-04-03T14:38:51.715Z,30.01
2019-04-03T14:41:24.118Z,29.83
2019-04-03T14:43:56.502Z,29.75
2019-04-03T14:46:30.606Z,29.85
2019-04-03T14:49:04.354Z,29.99
2019-04-03T14:51:37.025Z,30.23
2019-04-03T14:54:09.183Z,30.03
2019-04-03T14:56:41.520Z,30.18
2019-04-03T14:59:14.475Z,29.99
2019-04-03T15:01:47.577Z,30.31
2019-04-03T15:04:19.854Z,30.37
2019-04-03T15:07:02.138Z,30.50
2019-04-03T15:09:27.937Z,30.69
2019-04-03T15:12:01.677Z,30.65
2019-04-03T15:14:34.668Z,31.06
2019-04-03T15:17:07.131Z,31.03
2019-04-03T15:19:39.458Z,30.71
2019-04-03T15:22:12.111Z,30.87
2019-04-03T15:24:44.656Z,31.18
2019-04-03T15:27:18.204Z,31.10
2019-04-03T15:29:50.617Z,31.08
2019-04-03T15:32:23.396Z,31.18
2019-04-03T15:34:58.736Z,31.17
2019-04-03T15:37:31.311Z,31.17
2019-04-03T15:40:04.757Z,31.38
2019-04-03T15:42:40.289Z,31.31
2019-04-03T15:45:11.754Z,31.49
2019-04-03T15:47:46.782Z,31.83
2019-04-03T15:50:19.195Z,31.68
2019-04-03T15:52:52.233Z,31.66
2019-04-03T15:55:25.403Z,31.96
2019-04-03T15:57:58.437Z,31.83
2019-04-03T16:00:33.676Z,31.99
2019-04-03T16:03:06.090Z,32.01
2019-04-03T16:05:38.634Z,31.98
2019-04-03T16:08:12.444Z,32.33
2019-04-03T16:10:45.711Z,32.23
2019-04-03T16:13:20.858Z,32.33
2019-04-03T16:15:56.354Z,32.61
2019-04-03T16:18:27.264Z,32.65
2019-04-03T16:20:59.537Z,32.63
2019-04-03T16:23:34.253Z,32.73
2019-04-03T16:26:06.712Z,32.69
2019-04-03T16:28:39.526Z,32.92
2019-04-03T16:31:12.767Z,32.97
2019-04-03T16:33:45.641Z,32.98
2019-04-03T16:36:18.670Z,33.52
2019-04-03T16:38:51.688Z,33.45
2019-04-03T16:41:24.652Z,33.17
2019-04-03T16:43:57.146Z,33.49
2019-04-03T16:46:29.862Z,33.69
2019-04-03T16:49:02.401Z,33.63
2019-04-03T16:51:35.763Z,33.67
2019-04-03T16:54:10.954Z,33.82
2019-04-03T16:56:42.667Z,34.04
2019-04-03T16:59:15.431Z,33.86
2019-04-03T17:01:48.496Z,34.41
2019-04-03T17:04:26.090Z,34.39
2019-04-03T17:06:55.690Z,34.51
2019-04-03T17:09:28.235Z,34.44
2019-04-03T17:12:01.096Z,34.69
2019-04-03T17:14:34.198Z,34.86
2019-04-03T17:17:12.442Z,35.13
2019-04-03T17:19:41.426Z,35.24
2019-04-03T17:22:14.254Z,34.89
2019-04-03T17:24:49.524Z,35.01
2019-04-03T17:27:21.514Z,35.41
2019-04-03T17:29:54.357Z,35.47
2019-04-03T17:32:28.969Z,36.09
2019-04-03T17:35:01.391Z,36.27
2019-04-03T17:37:33.851Z,36.15
2019-04-03T17:40:11.134Z,36.21
2019-04-03T17:42:43.946Z,36.22
2019-04-03T17:45:16.527Z,36.46
2019-04-03T17:47:49.724Z,36.69
2019-04-03T17:50:25.386Z,37.03
2019-04-03T17:52:58.011Z,36.81
2019-04-03T17:55:30.411Z,37.13
2019-04-03T17:58:02.914Z,36.81
2019-04-03T18:00:35.572Z,37.21
2019-04-03T18:03:08.161Z,37.17
2019-04-03T18:05:40.461Z,36.60
2019-04-03T18:08:12.931Z,37.66
2019-04-03T18:10:45.601Z,37.25
2019-04-03T18:13:18.091Z,37.80
2019-04-03T18:15:50.427Z,37.95
2019-04-03T18:18:23.226Z,38.06
2019-04-03T18:20:55.996Z,38.40
2019-04-03T18:23:28.631Z,38.36
2019-04-03T18:26:01.071Z,38.35
2019-04-03T18:28:33.941Z,38.55
2019-04-03T18:31:07.871Z,38.69
2019-04-03T18:33:40.876Z,38.41
2019-04-03T18:36:13.441Z,38.55
2019-04-03T18:38:46.066Z,38.87
2019-04-03T18:41:18.816Z,39.10
2019-04-03T18:43:54.146Z,39.42
2019-04-03T18:46:31.920Z,39.02
2019-04-03T18:49:01.582Z,39.28
2019-04-03T18:51:36.820Z,39.51
2019-04-03T18:54:09.749Z,39.37
2019-04-03T18:56:45.611Z,39.14
2019-04-03T18:59:18.037Z,39.16
2019-04-03T19:01:50.886Z,39.44
2019-04-03T19:04:26.366Z,39.12
2019-04-03T19:07:00.831Z,39.53
2019-04-03T19:09:33.026Z,39.66
2019-04-03T19:12:08.743Z,39.83
2019-04-03T19:14:40.741Z,39.98
2019-04-03T19:17:13.631Z,39.74
2019-04-03T19:19:46.311Z,40.27
2019-04-03T19:22:19.067Z,40.06
2019-04-03T19:24:51.922Z,40.27
2019-04-03T19:27:24.351Z,40.44
2019-04-03T19:29:57.336Z,40.56
2019-04-03T19:32:29.918Z,40.18
2019-04-03T19:35:02.583Z,40.45
2019-04-03T19:37:35.592Z,40.34
2019-04-03T19:40:09.888Z,40.57
2019-04-03T19:42:43.912Z,40.63
2019-04-03T19:45:16.618Z,40.67
2019-04-03T19:47:49.266Z,41.13
2019-04-03T19:50:22.061Z,40.99
2019-04-03T19:52:54.901Z,41.16
2019-04-03T19:55:27.401Z,41.39
2019-04-03T19:57:59.936Z,41.39
2019-04-03T20:00:34.677Z,41.12
2019-04-03T20:03:06.376Z,41.64
2019-04-03T20:05:39.202Z,41.40
2019-04-03T20:08:12.101Z,41.79
2019-04-03T20:10:44.399Z,42.01
2019-04-03T20:13:17.041Z,41.19
2019-04-03T20:15:49.311Z,42.09
2019-04-03T20:18:21.681Z,41.47
2019-04-03T20:20:54.456Z,42.09
2019-04-03T20:23:29.952Z,41.97
2019-04-03T20:26:01.217Z,42.23
2019-04-03T20:28:33.736Z,42.48
2019-04-03T20:31:06.153Z,42.55
2019-04-03T20:33:42.080Z,42.59
2019-04-03T20:36:16.557Z,42.58
2019-04-03T20:38:48.686Z,42.90
2019-04-03T20:41:21.092Z,43.15
2019-04-03T20:43:53.513Z,43.12
2019-04-03T20:46:25.871Z,42.78
2019-04-03T20:48:58.746Z,42.55
2019-04-03T20:51:32.802Z,43.02
2019-04-03T20:54:05.566Z,43.46
2019-04-03T20:56:37.943Z,43.46
2019-04-03T20:59:12.038Z,43.24
2019-04-03T21:01:44.858Z,43.48
2019-04-03T21:04:17.144Z,44.09
2019-04-03T21:06:51.518Z,43.94
2019-04-03T21:09:23.626Z,44.14
2019-04-03T21:11:56.361Z,43.94
2019-04-03T21:14:29.051Z,43.44
2019-04-03T21:17:01.782Z,43.78
2019-04-03T21:19:34.456Z,44.16
2019-04-03T21:22:07.333Z,44.69
2019-04-03T21:24:39.861Z,44.30
2019-04-03T21:27:12.541Z,44.64
2019-04-03T21:29:45.318Z,44.58
2019-04-03T21:32:17.881Z,44.47
2019-04-03T21:34:50.819Z,44.71
2019-04-03T21:37:23.451Z,45.08
2019-04-03T21:39:56.016Z,44.96
2019-04-03T21:42:28.296Z,44.00
2019-04-03T21:45:02.755Z,44.08
2019-04-03T21:47:35.441Z,44.68
2019-04-03T21:50:08.061Z,45.44
2019-04-03T21:52:40.451Z,45.31
2019-04-03T21:55:13.001Z,45.51
2019-04-03T21:57:45.436Z,45.57
2019-04-03T22:00:24.141Z,45.81
2019-04-03T22:02:57.221Z,46.13
2019-04-03T22:05:29.901Z,45.60
2019-04-03T22:08:02.191Z,46.37
2019-04-03T22:10:35.075Z,45.86
2019-04-03T22:13:08.301Z,46.45
2019-04-03T22:15:40.886Z,46.42
2019-04-03T22:18:13.601Z,46.55
2019-04-03T22:20:46.396Z,46.32
2019-04-03T22:23:18.761Z,46.47
2019-04-03T22:25:51.177Z,46.98
2019-04-03T22:28:23.745Z,46.41
2019-04-03T22:30:56.101Z,46.56
2019-04-03T22:33:28.565Z,46.98
2019-04-03T22:36:01.266Z,46.31
2019-04-03T22:38:37.188Z,46.27
2019-04-03T22:41:12.126Z,47.62
2019-04-03T22:43:44.114Z,47.86
2019-04-03T22:46:18.241Z,47.66
2019-04-03T22:48:50.655Z,47.40
2019-04-03T22:51:22.936Z,47.55
2019-04-03T22:53:55.421Z,47.76
2019-04-03T22:56:28.671Z,48.21
2019-04-03T22:59:01.367Z,48.02
2019-04-03T23:01:33.696Z,47.32
2019-04-03T23:04:06.245Z,48.03
2019-04-03T23:06:38.941Z,48.13
2019-04-03T23:09:11.520Z,48.14
2019-04-03T23:11:44.216Z,47.90
2019-04-03T23:14:16.831Z,48.96
2019-04-03T23:16:49.321Z,48.65
2019-04-03T23:19:21.771Z,49.10
2019-04-03T23:21:54.840Z,49.65
2019-04-03T23:24:28.886Z,49.40
2019-04-03T23:27:02.676Z,49.39
2019-04-03T23:29:36.582Z,49.07
2019-04-03T23:32:09.432Z,49.58
2019-04-03T23:34:41.841Z,50.39
2019-04-03T23:37:14.400Z,49.50
2019-04-03T23:39:47.036Z,50.36
2019-04-03T23:42:19.658Z,49.50
2019-04-03T23:44:52.071Z,49.66
2019-04-03T23:47:24.602Z,49.93
2019-04-03T23:49:57.180Z,49.95
2019-04-03T23:52:30.791Z,49.72
2019-04-03T23:55:04.810Z,50.24
2019-04-03T23:57:39.586Z,49.45
